Time,TemperatureF,DewpointF,PressureIn,WindDirection,WindDirectionDegrees,WindSpeedMPH,WindSpeedGustMPH,Humidity,HourlyPrecipIn,Conditions,Clouds,dailyrainin,SoftwareType,DateUTC
2013-03-25 00:00:00,37.9,31.4,29.14,NW,315,0.0,0.0,77,0.00,,,0.00,VWS V14.01,2013-03-25 04:00:00,
2013-03-25 00:03:00,38.1,31.6,29.14,NW,315,0.0,0.0,77,0.00,,,0.00,VWS V14.01,2013-03-25 04:03:00,
2013-03-25 00:08:00,38.1,31.6,29.14,NNW,338,0.0,0.0,77,0.00,,,0.00,VWS V14.01,2013-03-25 04:08:00,
2013-03-25 00:13:00,38.3,31.7,29.14,NNE,22,0.0,0.0,77,0.00,,,0.00,VWS V14.01,2013-03-25 04:13:00,
2013-03-25 00:18:00,38.5,31.9,29.14,NW,315,0.0,0.0,77,0.00,,,0.00,VWS V14.01,2013-03-25 04:18:00,
2013-03-25 00:24:00,38.3,31.7,29.14,NNW,338,0.0,0.0,77,0.00,,,0.00,VWS V14.01,2013-03-25 04:24:00,
2013-03-25 00:29:00,38.1,31.6,29.14,North,0,0.0,0.0,77,0.00,,,0.00,VWS V14.01,2013-03-25 04:29:00,
2013-03-25 00:34:00,38.5,32.2,29.14,West,270,0.0,0.0,78,0.00,,,0.00,VWS V14.01,2013-03-25 04:34:00,
2013-03-25 00:39:00,38.7,32.4,29.17,SW,225,0.0,0.0,78,0.00,,,0.00,VWS V14.01,2013-03-25 04:39:00,
2013-03-25 00:44:00,38.7,32.4,29.17,WSW,248,0.0,0.0,78,0.00,,,0.00,VWS V14.01,2013-03-25 04:44:00,
2013-03-25 00:50:00,38.8,32.6,29.17,WSW,248,0.0,0.0,78,0.00,,,0.00,VWS V14.01,2013-03-25 04:50:00,
2013-03-25 00:55:00,38.8,32.6,29.17,WSW,248,0.0,0.0,78,0.00,,,0.00,VWS V14.01,2013-03-25 04:55:00,
2013-03-25 01:00:00,38.8,32.6,29.17,North,0,0.0,0.0,78,0.00,,,0.00,VWS V14.01,2013-03-25 05:00:00,
2013-03-25 01:05:00,38.8,32.6,29.17,WSW,248,0.0,0.0,78,0.00,,,0.00,VWS V14.01,2013-03-25 05:05:00,
2013-03-25 01:10:00,38.5,31.9,29.17,NE,45,0.0,0.0,77,0.00,,,0.00,VWS V14.01,2013-03-25 05:10:00,
2013-03-25 01:15:00,38.1,31.6,29.17,North,0,0.0,0.0,77,0.00,,,0.00,VWS V14.01,2013-03-25 05:15:00,
2013-03-25 01:20:00,38.5,32.2,29.17,SE,135,0.0,0.0,78,0.00,,,0.00,VWS V14.01,2013-03-25 05:20:00,
2013-03-25 01:25:00,38.7,32.4,29.14,East,90,0.0,0.0,78,0.00,,,0.00,VWS V14.01,2013-03-25 05:25:00,
2013-03-25 01:31:00,38.7,32.4,29.14,North,0,0.0,0.0,78,0.00,,,0.00,VWS V14.01,2013-03-25 05:31:00,
2013-03-25 01:36:00,38.7,32.4,29.14,North,0,0.0,0.0,78,0.00,,,0.00,VWS V14.01,2013-03-25 05:36:00,
2013-03-25 01:41:00,38.5,32.2,29.12,East,90,0.0,0.0,78,0.00,,,0.00,VWS V14.01,2013-03-25 05:41:00,
2013-03-25 01:46:00,38.1,31.9,29.12,ESE,112,0.0,0.0,78,0.00,,,0.00,VWS V14.01,2013-03-25 05:46:00,
2013-03-25 01:52:00,38.1,31.9,29.12,WNW,292,0.0,0.0,78,0.00,,,0.00,VWS V14.01,2013-03-25 05:52:00,
2013-03-25 01:57:00,38.5,32.2,29.12,West,270,0.0,0.0,78,0.00,,,0.00,VWS V14.01,2013-03-25 05:57:00,
2013-03-25 02:02:00,38.5,32.2,29.12,NW,315,0.0,0.0,78,0.00,,,0.00,VWS V14.01,2013-03-25 06:02:00,
2013-03-25 02:07:00,38.5,32.2,29.12,NNW,338,0.0,0.0,78,0.00,,,0.00,VWS V14.01,2013-03-25 06:07:00,
2013-03-25 02:12:00,38.1,31.9,29.12,SSW,202,0.0,0.0,78,0.00,,,0.00,VWS V14.01,2013-03-25 06:12:00,
2013-03-25 02:17:00,38.3,32.0,29.12,WNW,292,0.0,0.0,78,0.00,,,0.00,VWS V14.01,2013-03-25 06:17:00,
2013-03-25 02:22:00,38.5,32.2,29.12,NW,315,0.0,0.0,78,0.00,,,0.00,VWS V14.01,2013-03-25 06:22:00,
2013-03-25 02:27:00,38.3,32.0,29.12,NNW,338,0.0,0.0,78,0.00,,,0.00,VWS V14.01,2013-03-25 06:27:00,
2013-03-25 02:33:00,38.5,32.2,29.12,WNW,292,0.0,0.0,78,0.00,,,0.00,VWS V14.01,2013-03-25 06:33:00,
2013-03-25 02:38:00,38.5,32.2,29.12,NW,315,0.0,0.9,78,0.00,,,0.00,VWS V14.01,2013-03-25 06:38:00,
2013-03-25 02:43:00,38.5,32.2,29.12,WSW,248,0.0,0.0,78,0.00,,,0.00,VWS V14.01,2013-03-25 06:43:00,
2013-03-25 02:48:00,38.3,32.0,29.12,NNE,22,1.3,1.3,78,0.00,,,0.00,VWS V14.01,2013-03-25 06:48:00,
2013-03-25 02:53:00,38.3,32.0,29.12,SW,225,0.0,1.3,78,0.00,,,0.00,VWS V14.01,2013-03-25 06:53:00,
2013-03-25 02:59:00,37.9,31.7,29.12,WNW,292,0.0,0.0,78,0.00,,,0.00,VWS V14.01,2013-03-25 06:59:00,
2013-03-25 03:04:00,38.1,31.9,29.12,NW,315,0.0,0.0,78,0.00,,,0.00,VWS V14.01,2013-03-25 07:04:00,
2013-03-25 03:09:00,38.1,31.9,29.12,West,270,0.0,0.0,78,0.00,,,0.00,VWS V14.01,2013-03-25 07:09:00,
2013-03-25 03:14:00,38.3,32.4,29.12,WSW,248,0.0,0.0,79,0.00,,,0.00,VWS V14.01,2013-03-25 07:14:00,
2013-03-25 03:20:00,38.5,32.5,29.12,SSW,202,0.0,0.0,79,0.00,,,0.00,VWS V14.01,2013-03-25 07:20:00,
2013-03-25 03:25:00,38.5,32.5,29.12,WSW,248,0.0,0.0,79,0.00,,,0.00,VWS V14.01,2013-03-25 07:25:00,
2013-03-25 03:30:00,38.5,32.5,29.12,WSW,248,0.0,0.0,79,0.00,,,0.00,VWS V14.01,2013-03-25 07:30:00,
2013-03-25 03:35:00,38.5,32.5,29.12,West,270,0.0,0.0,79,0.00,,,0.00,VWS V14.01,2013-03-25 07:35:00,
2013-03-25 03:40:00,38.5,32.5,29.12,West,270,0.0,0.0,79,0.00,,,0.00,VWS V14.01,2013-03-25 07:40:00,
2013-03-25 03:45:00,38.5,32.5,29.12,East,90,0.0,0.0,79,0.00,,,0.00,VWS V14.01,2013-03-25 07:45:00,
2013-03-25 03:50:00,38.7,32.7,29.12,SSE,158,0.0,0.0,79,0.00,,,0.00,VWS V14.01,2013-03-25 07:50:00,
2013-03-25 03:55:00,38.7,32.7,29.12,South,180,0.0,0.0,79,0.00,,,0.00,VWS V14.01,2013-03-25 07:55:00,
2013-03-25 04:00:00,38.7,32.7,29.12,NW,315,0.0,0.0,79,0.00,,,0.00,VWS V14.01,2013-03-25 08:00:00,
2013-03-25 04:06:00,38.8,32.9,29.12,WSW,248,0.0,0.0,79,0.00,,,0.00,VWS V14.01,2013-03-25 08:06:00,
2013-03-25 04:11:00,38.8,32.9,29.12,SSW,202,0.0,0.0,79,0.00,,,0.00,VWS V14.01,2013-03-25 08:11:00,
2013-03-25 04:16:00,38.8,32.9,29.12,West,270,0.0,0.0,79,0.00,,,0.00,VWS V14.01,2013-03-25 08:16:00,
2013-03-25 04:21:00,38.8,32.9,29.12,West,270,0.0,0.0,79,0.00,,,0.00,VWS V14.01,2013-03-25 08:21:00,
2013-03-25 04:26:00,38.8,32.9,29.12,WSW,248,0.0,0.0,79,0.00,,,0.00,VWS V14.01,2013-03-25 08:26:00,
2013-03-25 04:31:00,38.8,32.9,29.12,South,180,0.0,0.0,79,0.00,,,0.00,VWS V14.01,2013-03-25 08:31:00,
2013-03-25 04:37:00,38.8,32.9,29.12,South,180,0.0,0.0,79,0.00,,,0.00,VWS V14.01,2013-03-25 08:37:00,
2013-03-25 04:42:00,38.7,32.4,29.12,WSW,248,0.0,0.0,78,0.00,,,0.00,VWS V14.01,2013-03-25 08:42:00,
2013-03-25 04:47:00,38.7,32.7,29.12,West,270,0.0,0.0,79,0.00,,,0.00,VWS V14.01,2013-03-25 08:47:00,
2013-03-25 04:52:00,38.5,32.2,29.12,WSW,248,0.0,0.0,78,0.00,,,0.00,VWS V14.01,2013-03-25 08:52:00,
2013-03-25 04:57:00,38.7,32.7,29.12,West,270,0.0,0.0,79,0.00,,,0.00,VWS V14.01,2013-03-25 08:57:00,
2013-03-25 05:02:00,38.5,32.5,29.12,West,270,0.0,0.0,79,0.00,,,0.00,VWS V14.01,2013-03-25 09:02:00,
2013-03-25 05:07:00,38.7,32.7,29.12,SW,225,0.0,0.0,79,0.00,,,0.00,VWS V14.01,2013-03-25 09:07:00,
2013-03-25 05:13:00,38.5,32.5,29.12,SSW,202,0.0,0.9,79,0.00,,,0.00,VWS V14.01,2013-03-25 09:13:00,
2013-03-25 05:18:00,38.5,32.5,29.12,South,180,0.0,0.0,79,0.00,,,0.00,VWS V14.01,2013-03-25 09:18:00,
2013-03-25 05:23:00,38.5,32.5,29.14,South,180,0.0,0.0,79,0.00,,,0.00,VWS V14.01,2013-03-25 09:23:00,
2013-03-25 05:29:00,38.5,32.5,29.14,West,270,0.0,0.0,79,0.00,,,0.00,VWS V14.01,2013-03-25 09:29:00,
2013-03-25 05:34:00,38.3,32.4,29.14,SW,225,0.0,0.0,79,0.00,,,0.00,VWS V14.01,2013-03-25 09:34:00,
2013-03-25 05:39:00,38.3,32.4,29.14,SW,225,0.0,0.0,79,0.00,,,0.00,VWS V14.01,2013-03-25 09:39:00,
2013-03-25 05:44:00,38.3,32.4,29.14,West,270,0.0,0.0,79,0.00,,,0.00,VWS V14.01,2013-03-25 09:44:00,
2013-03-25 05:49:00,38.3,32.4,29.14,SW,225,0.0,0.0,79,0.00,,,0.00,VWS V14.01,2013-03-25 09:49:00,
2013-03-25 05:54:00,38.3,32.4,29.12,WSW,248,0.0,0.0,79,0.00,,,0.00,VWS V14.01,2013-03-25 09:54:00,
2013-03-25 05:59:00,38.3,32.4,29.12,SW,225,0.0,0.0,79,0.00,,,0.00,VWS V14.01,2013-03-25 09:59:00,
2013-03-25 06:05:00,38.3,32.4,29.12,WSW,248,0.0,0.0,79,0.00,,,0.00,VWS V14.01,2013-03-25 10:05:00,
2013-03-25 06:10:00,38.3,32.4,29.12,WSW,248,0.0,0.0,79,0.00,,,0.00,VWS V14.01,2013-03-25 10:10:00,
2013-03-25 06:15:00,38.3,32.4,29.12,WSW,248,0.0,0.0,79,0.00,,,0.00,VWS V14.01,2013-03-25 10:15:00,
2013-03-25 06:20:00,38.3,32.4,29.12,NW,315,0.0,0.0,79,0.00,,,0.00,VWS V14.01,2013-03-25 10:20:00,
2013-03-25 06:25:00,38.3,32.4,29.12,NW,315,0.0,0.0,79,0.00,,,0.00,VWS V14.01,2013-03-25 10:25:00,
2013-03-25 06:30:00,38.3,32.4,29.12,WNW,292,0.0,0.0,79,0.00,,,0.00,VWS V14.01,2013-03-25 10:30:00,
2013-03-25 06:36:00,38.3,32.4,29.12,SSW,202,0.0,0.0,79,0.00,,,0.00,VWS V14.01,2013-03-25 10:36:00,
2013-03-25 06:41:00,38.1,32.2,29.12,WSW,248,0.0,0.0,79,0.00,,,0.00,VWS V14.01,2013-03-25 10:41:00,
2013-03-25 06:46:00,38.1,32.2,29.12,West,270,0.0,0.0,79,0.00,,,0.00,VWS V14.01,2013-03-25 10:46:00,
2013-03-25 06:51:00,38.1,31.9,29.12,NNW,338,0.0,0.0,78,0.00,,,0.00,VWS V14.01,2013-03-25 10:51:00,
2013-03-25 06:57:00,37.9,31.7,29.12,WNW,292,0.0,0.0,78,0.00,,,0.00,VWS V14.01,2013-03-25 10:57:00,
2013-03-25 07:02:00,37.9,32.0,29.12,SW,225,0.0,0.0,79,0.00,,,0.00,VWS V14.01,2013-03-25 11:02:00,
2013-03-25 07:07:00,38.1,32.2,29.12,SSW,202,0.0,0.0,79,0.00,,,0.00,VWS V14.01,2013-03-25 11:07:00,
2013-03-25 07:13:00,38.1,32.2,29.12,NW,315,0.0,0.0,79,0.00,,,0.00,VWS V14.01,2013-03-25 11:13:00,
2013-03-25 07:18:00,38.1,32.2,29.12,SW,225,0.0,0.0,79,0.00,,,0.00,VWS V14.01,2013-03-25 11:18:00,
2013-03-25 07:23:00,37.9,32.0,29.12,SE,135,0.0,0.0,79,0.00,,,0.00,VWS V14.01,2013-03-25 11:23:00,
2013-03-25 07:28:00,38.3,32.4,29.12,SSE,158,0.0,0.0,79,0.00,,,0.00,VWS V14.01,2013-03-25 11:28:00,
2013-03-25 07:33:00,38.3,32.4,29.12,SSE,158,0.0,0.0,79,0.00,,,0.00,VWS V14.01,2013-03-25 11:33:00,
2013-03-25 07:38:00,38.1,32.2,29.12,SE,135,0.0,0.0,79,0.00,,,0.00,VWS V14.01,2013-03-25 11:38:00,
2013-03-25 07:44:00,38.5,32.5,29.12,South,180,0.0,0.0,79,0.00,,,0.00,VWS V14.01,2013-03-25 11:44:00,
2013-03-25 07:49:00,38.5,32.5,29.12,South,180,0.0,0.0,79,0.00,,,0.00,VWS V14.01,2013-03-25 11:49:00,
2013-03-25 07:54:00,38.5,32.5,29.12,SSW,202,0.0,0.0,79,0.00,,,0.00,VWS V14.01,2013-03-25 11:54:00,
2013-03-25 07:59:00,38.7,32.7,29.12,SSE,158,0.0,0.0,79,0.00,,,0.00,VWS V14.01,2013-03-25 11:59:00,
2013-03-25 08:05:00,38.7,32.7,29.12,SSE,158,0.0,0.0,79,0.00,,,0.00,VWS V14.01,2013-03-25 12:05:00,
2013-03-25 08:10:00,38.7,32.7,29.12,South,180,0.0,0.0,79,0.00,,,0.00,VWS V14.01,2013-03-25 12:10:00,
2013-03-25 08:15:00,38.7,32.7,29.12,South,180,0.0,0.0,79,0.00,,,0.00,VWS V14.01,2013-03-25 12:15:00,
2013-03-25 08:20:00,38.8,32.9,29.12,South,180,0.0,0.0,79,0.00,,,0.00,VWS V14.01,2013-03-25 12:20:00,
2013-03-25 08:25:00,38.8,32.9,29.12,WSW,248,0.0,0.0,79,0.00,,,0.00,VWS V14.01,2013-03-25 12:25:00,
2013-03-25 08:31:00,39.0,33.1,29.12,SSW,202,0.0,0.0,79,0.00,,,0.00,VWS V14.01,2013-03-25 12:31:00,
2013-03-25 08:36:00,39.0,33.1,29.12,South,180,0.0,0.0,79,0.00,,,0.00,VWS V14.01,2013-03-25 12:36:00,
2013-03-25 08:41:00,39.2,32.9,29.12,SSW,202,0.0,0.0,78,0.00,,,0.00,VWS V14.01,2013-03-25 12:41:00,
2013-03-25 08:46:00,39.2,32.9,29.12,SSW,202,0.0,0.0,78,0.00,,,0.00,VWS V14.01,2013-03-25 12:46:00,
2013-03-25 08:51:00,39.2,32.9,29.12,SSE,158,1.3,1.3,78,0.00,,,0.00,VWS V14.01,2013-03-25 12:51:00,
2013-03-25 08:56:00,39.4,33.1,29.14,South,180,0.0,0.0,78,0.00,,,0.00,VWS V14.01,2013-03-25 12:56:00,
2013-03-25 09:02:00,39.4,33.1,29.14,SW,225,1.3,1.3,78,0.00,,,0.00,VWS V14.01,2013-03-25 13:02:00,
2013-03-25 09:07:00,39.4,33.1,29.14,SSW,202,0.9,0.9,78,0.00,,,0.00,VWS V14.01,2013-03-25 13:07:00,
2013-03-25 09:12:00,39.4,33.1,29.14,SSE,158,0.0,0.0,78,0.00,,,0.00,VWS V14.01,2013-03-25 13:12:00,
2013-03-25 09:17:00,39.6,33.3,29.14,South,180,0.0,0.0,78,0.00,,,0.00,VWS V14.01,2013-03-25 13:17:00,
2013-03-25 09:23:00,39.7,33.5,29.14,SE,135,0.0,0.0,78,0.00,,,0.00,VWS V14.01,2013-03-25 13:23:00,
2013-03-25 09:28:00,39.7,33.5,29.14,SSE,158,1.1,2.5,78,0.00,,,0.00,VWS V14.01,2013-03-25 13:28:00,
2013-03-25 09:33:00,39.7,33.1,29.14,SSE,158,0.0,1.6,77,0.00,,,0.00,VWS V14.01,2013-03-25 13:33:00,
2013-03-25 09:38:00,39.7,33.5,29.14,North,0,0.0,0.0,78,0.00,,,0.00,VWS V14.01,2013-03-25 13:38:00,
2013-03-25 09:43:00,39.9,33.6,29.14,South,180,1.1,2.7,78,0.00,,,0.00,VWS V14.01,2013-03-25 13:43:00,
2013-03-25 09:49:00,39.9,33.3,29.14,South,180,0.0,2.7,77,0.00,,,0.00,VWS V14.01,2013-03-25 13:49:00,
2013-03-25 09:54:00,40.3,33.7,29.14,SSE,158,1.6,1.6,77,0.00,,,0.00,VWS V14.01,2013-03-25 13:54:00,
2013-03-25 09:59:00,40.5,34.2,29.14,SSW,202,0.0,2.7,78,0.00,,,0.00,VWS V14.01,2013-03-25 13:59:00,
2013-03-25 10:04:00,40.6,34.0,29.14,SE,135,0.0,0.0,77,0.00,,,0.00,VWS V14.01,2013-03-25 14:04:00,
2013-03-25 10:10:00,40.6,34.0,29.14,SSE,158,1.3,3.6,77,0.00,,,0.00,VWS V14.01,2013-03-25 14:10:00,
2013-03-25 10:15:00,40.6,34.0,29.14,SSE,158,0.0,0.0,77,0.00,,,0.00,VWS V14.01,2013-03-25 14:15:00,
2013-03-25 10:20:00,41.0,34.0,29.14,ESE,112,2.5,2.5,76,0.00,,,0.00,VWS V14.01,2013-03-25 14:20:00,
2013-03-25 10:25:00,41.0,34.0,29.14,SW,225,0.0,2.5,76,0.00,,,0.00,VWS V14.01,2013-03-25 14:25:00,
2013-03-25 10:31:00,42.3,35.2,29.14,SE,135,4.7,4.7,76,0.00,,,0.00,VWS V14.01,2013-03-25 14:31:00,
2013-03-25 10:36:00,45.0,37.5,29.14,SE,135,2.7,2.7,75,0.00,,,0.00,VWS V14.01,2013-03-25 14:36:00,
2013-03-25 10:41:00,44.6,36.8,29.14,SE,135,2.5,2.5,74,0.00,,,0.00,VWS V14.01,2013-03-25 14:41:00,
2013-03-25 10:46:00,44.4,36.7,29.14,SSW,202,1.1,3.6,74,0.00,,,0.00,VWS V14.01,2013-03-25 14:46:00,
2013-03-25 10:51:00,44.2,36.2,29.14,ESE,112,2.7,2.7,73,0.00,,,0.00,VWS V14.01,2013-03-25 14:51:00,
2013-03-25 10:57:00,44.4,36.3,29.14,East,90,3.4,3.4,73,0.00,,,0.00,VWS V14.01,2013-03-25 14:57:00,
2013-03-25 11:02:00,44.4,36.0,29.14,SE,135,5.4,5.4,72,0.00,,,0.00,VWS V14.01,2013-03-25 15:02:00,
2013-03-25 11:07:00,44.8,36.3,29.14,SSW,202,2.0,2.0,72,0.00,,,0.00,VWS V14.01,2013-03-25 15:07:00,
2013-03-25 11:13:00,45.1,36.3,29.14,ESE,112,0.0,1.6,71,0.00,,,0.00,VWS V14.01,2013-03-25 15:13:00,
2013-03-25 11:18:00,46.6,37.3,29.14,West,270,0.0,0.9,70,0.00,,,0.00,VWS V14.01,2013-03-25 15:18:00,
2013-03-25 11:23:00,46.9,37.7,29.14,SSE,158,3.8,6.5,70,0.00,,,0.00,VWS V14.01,2013-03-25 15:23:00,
2013-03-25 11:28:00,47.8,38.2,29.14,SSE,158,3.8,3.8,69,0.00,,,0.00,VWS V14.01,2013-03-25 15:28:00,
2013-03-25 11:34:00,48.0,38.0,29.14,SE,135,5.8,5.8,68,0.00,,,0.00,VWS V14.01,2013-03-25 15:34:00,
2013-03-25 11:39:00,49.1,38.6,29.14,SSW,202,3.6,3.6,67,0.00,,,0.00,VWS V14.01,2013-03-25 15:39:00,
2013-03-25 11:44:00,49.5,38.6,29.14,SW,225,4.0,4.0,66,0.00,,,0.00,VWS V14.01,2013-03-25 15:44:00,
2013-03-25 11:49:00,49.3,37.6,29.14,South,180,2.9,2.9,64,0.00,,,0.00,VWS V14.01,2013-03-25 15:49:00,
2013-03-25 11:55:00,49.3,37.2,29.14,SSE,158,5.6,5.6,63,0.00,,,0.00,VWS V14.01,2013-03-25 15:55:00,
2013-03-25 12:00:00,50.4,38.3,29.14,East,90,4.7,4.7,63,0.00,,,0.00,VWS V14.01,2013-03-25 16:00:00,
2013-03-25 12:05:00,49.8,36.9,29.14,South,180,2.9,9.4,61,0.00,,,0.00,VWS V14.01,2013-03-25 16:05:00,
2013-03-25 12:11:00,50.0,36.7,29.14,East,90,4.3,4.3,60,0.00,,,0.00,VWS V14.01,2013-03-25 16:11:00,
2013-03-25 12:16:00,49.5,35.7,29.14,SSE,158,3.4,3.8,59,0.00,,,0.00,VWS V14.01,2013-03-25 16:16:00,
2013-03-25 12:21:00,49.5,36.2,29.14,SSW,202,2.5,2.7,60,0.00,,,0.00,VWS V14.01,2013-03-25 16:21:00,
2013-03-25 12:27:00,50.7,36.9,29.14,SSE,158,2.9,2.9,59,0.00,,,0.00,VWS V14.01,2013-03-25 16:27:00,
2013-03-25 12:32:00,50.7,36.9,29.14,SE,135,4.0,4.0,59,0.00,,,0.00,VWS V14.01,2013-03-25 16:32:00,
2013-03-25 12:38:00,53.4,38.1,29.14,SSW,202,4.9,4.9,56,0.00,,,0.00,VWS V14.01,2013-03-25 16:38:00,
2013-03-25 12:43:00,51.8,35.7,29.14,West,270,3.1,3.1,54,0.00,,,0.00,VWS V14.01,2013-03-25 16:43:00,
2013-03-25 12:48:00,52.5,36.4,29.14,WSW,248,2.0,3.6,54,0.00,,,0.00,VWS V14.01,2013-03-25 16:48:00,
2013-03-25 12:54:00,52.9,36.2,29.14,SSW,202,2.0,4.7,53,0.00,,,0.00,VWS V14.01,2013-03-25 16:54:00,
2013-03-25 12:59:00,52.0,35.4,29.14,ESE,112,1.6,1.6,53,0.00,,,0.00,VWS V14.01,2013-03-25 16:59:00,
2013-03-25 13:04:00,51.6,35.1,29.14,SW,225,2.9,2.9,53,0.00,,,0.00,VWS V14.01,2013-03-25 17:04:00,
2013-03-25 13:09:00,51.6,34.6,29.14,WSW,248,2.5,2.7,52,0.00,,,0.00,VWS V14.01,2013-03-25 17:09:00,
2013-03-25 13:14:00,51.6,34.6,29.14,SSE,158,2.9,3.8,52,0.00,,,0.00,VWS V14.01,2013-03-25 17:14:00,
2013-03-25 13:19:00,51.3,34.2,29.14,SSW,202,1.3,1.3,52,0.00,,,0.00,VWS V14.01,2013-03-25 17:19:00,
2013-03-25 13:24:00,52.0,33.9,29.12,WNW,292,2.9,2.9,50,0.00,,,0.00,VWS V14.01,2013-03-25 17:24:00,
2013-03-25 13:30:00,52.0,33.4,29.12,SE,135,3.6,3.6,49,0.00,,,0.00,VWS V14.01,2013-03-25 17:30:00,
2013-03-25 13:35:00,51.6,33.1,29.12,SSW,202,2.9,2.9,49,0.00,,,0.00,VWS V14.01,2013-03-25 17:35:00,
2013-03-25 13:40:00,51.3,32.3,29.12,SW,225,3.4,3.4,48,0.00,,,0.00,VWS V14.01,2013-03-25 17:40:00,
2013-03-25 13:45:00,50.7,31.8,29.12,South,180,2.0,3.8,48,0.00,,,0.00,VWS V14.01,2013-03-25 17:45:00,
2013-03-25 13:51:00,50.4,30.9,29.12,South,180,1.6,3.4,47,0.00,,,0.00,VWS V14.01,2013-03-25 17:51:00,
2013-03-25 13:57:00,50.2,30.8,29.14,SW,225,2.5,4.9,47,0.00,,,0.00,VWS V14.01,2013-03-25 17:57:00,
2013-03-25 14:02:00,50.0,30.6,29.14,SW,225,2.7,2.7,47,0.00,,,0.00,VWS V14.01,2013-03-25 18:02:00,
2013-03-25 14:07:00,49.6,30.8,29.14,East,90,4.9,4.9,48,0.00,,,0.00,VWS V14.01,2013-03-25 18:07:00,
2013-03-25 14:12:00,49.3,30.4,29.14,SSW,202,7.2,7.2,48,0.00,,,0.00,VWS V14.01,2013-03-25 18:12:00,
2013-03-25 14:17:00,49.3,30.4,29.14,SSW,202,3.4,3.4,48,0.00,,,0.00,VWS V14.01,2013-03-25 18:17:00,
2013-03-25 14:22:00,49.8,30.4,29.14,South,180,3.1,4.3,47,0.00,,,0.00,VWS V14.01,2013-03-25 18:22:00,
2013-03-25 14:28:00,50.2,30.8,29.14,NNW,338,4.3,4.3,47,0.00,,,0.00,VWS V14.01,2013-03-25 18:28:00,
2013-03-25 14:33:00,50.2,30.8,29.14,SSW,202,2.0,3.4,47,0.00,,,0.00,VWS V14.01,2013-03-25 18:33:00,
2013-03-25 14:38:00,50.0,30.6,29.14,SSW,202,2.9,2.9,47,0.00,,,0.00,VWS V14.01,2013-03-25 18:38:00,
2013-03-25 14:43:00,49.8,30.4,29.14,SW,225,5.4,5.4,47,0.00,,,0.00,VWS V14.01,2013-03-25 18:43:00,
2013-03-25 14:48:00,50.4,30.4,29.14,SSW,202,5.6,5.6,46,0.00,,,0.00,VWS V14.01,2013-03-25 18:48:00,
2013-03-25 14:53:00,51.8,31.7,29.14,SSW,202,6.3,6.3,46,0.00,,,0.00,VWS V14.01,2013-03-25 18:53:00,
2013-03-25 14:59:00,50.5,30.5,29.14,SSE,158,3.8,4.7,46,0.00,,,0.00,VWS V14.01,2013-03-25 18:59:00,
2013-03-25 15:04:00,50.5,30.5,29.14,South,180,4.3,4.3,46,0.00,,,0.00,VWS V14.01,2013-03-25 19:04:00,
2013-03-25 15:09:00,51.4,30.8,29.14,South,180,4.7,5.8,45,0.00,,,0.00,VWS V14.01,2013-03-25 19:09:00,
2013-03-25 15:14:00,51.8,31.1,29.14,West,270,2.7,2.7,45,0.00,,,0.00,VWS V14.01,2013-03-25 19:14:00,
2013-03-25 15:20:00,52.3,32.2,29.14,South,180,3.1,3.1,46,0.00,,,0.00,VWS V14.01,2013-03-25 19:20:00,
2013-03-25 15:25:00,51.3,30.7,29.14,SSE,158,2.9,7.8,45,0.00,,,0.00,VWS V14.01,2013-03-25 19:25:00,
2013-03-25 15:30:00,50.7,29.6,29.14,South,180,2.9,2.9,44,0.00,,,0.00,VWS V14.01,2013-03-25 19:30:00,
2013-03-25 15:35:00,50.9,30.3,29.14,SSW,202,3.6,7.4,45,0.00,,,0.00,VWS V14.01,2013-03-25 19:35:00,
2013-03-25 15:41:00,51.3,30.1,29.14,WNW,292,4.7,4.7,44,0.00,,,0.00,VWS V14.01,2013-03-25 19:41:00,
2013-03-25 15:46:00,51.3,30.1,29.14,WSW,248,6.5,6.5,44,0.00,,,0.00,VWS V14.01,2013-03-25 19:46:00,
2013-03-25 15:52:00,51.4,30.3,29.14,SSE,158,4.9,4.9,44,0.00,,,0.00,VWS V14.01,2013-03-25 19:52:00,
2013-03-25 15:57:00,50.9,29.8,29.14,East,90,6.7,6.7,44,0.00,,,0.00,VWS V14.01,2013-03-25 19:57:00,
2013-03-25 16:02:00,50.5,28.9,29.14,West,270,1.1,3.6,43,0.00,,,0.00,VWS V14.01,2013-03-25 20:02:00,
2013-03-25 16:07:00,50.5,28.9,29.14,SSE,158,1.6,3.4,43,0.00,,,0.00,VWS V14.01,2013-03-25 20:07:00,
2013-03-25 16:12:00,50.0,28.4,29.14,South,180,2.7,2.7,43,0.00,,,0.00,VWS V14.01,2013-03-25 20:12:00,
2013-03-25 16:17:00,49.6,28.1,29.14,SSW,202,2.9,5.6,43,0.00,,,0.00,VWS V14.01,2013-03-25 20:17:00,
2013-03-25 16:23:00,49.3,27.8,29.14,SE,135,2.5,2.5,43,0.00,,,0.00,VWS V14.01,2013-03-25 20:23:00,
2013-03-25 16:28:00,49.5,27.9,29.14,South,180,0.9,9.8,43,0.00,,,0.00,VWS V14.01,2013-03-25 20:28:00,
2013-03-25 16:33:00,49.6,27.5,29.14,West,270,4.3,4.3,42,0.00,,,0.00,VWS V14.01,2013-03-25 20:33:00,
2013-03-25 16:38:00,50.2,28.6,29.14,WSW,248,2.9,2.9,43,0.00,,,0.00,VWS V14.01,2013-03-25 20:38:00,
2013-03-25 16:43:00,50.0,27.8,29.17,SW,225,1.6,1.6,42,0.00,,,0.00,VWS V14.01,2013-03-25 20:43:00,
2013-03-25 16:48:00,49.8,27.7,29.17,South,180,3.1,3.4,42,0.00,,,0.00,VWS V14.01,2013-03-25 20:48:00,
2013-03-25 16:53:00,49.6,27.5,29.17,SSE,158,2.7,2.7,42,0.00,,,0.00,VWS V14.01,2013-03-25 20:53:00,
2013-03-25 16:59:00,49.5,27.3,29.17,SSW,202,2.9,2.9,42,0.00,,,0.00,VWS V14.01,2013-03-25 20:59:00,
2013-03-25 17:04:00,49.3,27.2,29.17,South,180,3.6,3.6,42,0.00,,,0.00,VWS V14.01,2013-03-25 21:04:00,
2013-03-25 17:09:00,49.3,27.2,29.17,SSE,158,2.2,4.5,42,0.00,,,0.00,VWS V14.01,2013-03-25 21:09:00,
2013-03-25 17:14:00,49.3,27.2,29.17,South,180,2.7,2.9,42,0.00,,,0.00,VWS V14.01,2013-03-25 21:14:00,
2013-03-25 17:19:00,49.1,27.0,29.17,SSW,202,4.0,4.0,42,0.00,,,0.00,VWS V14.01,2013-03-25 21:19:00,
2013-03-25 17:24:00,48.9,26.3,29.20,South,180,3.4,3.4,41,0.00,,,0.00,VWS V14.01,2013-03-25 21:24:00,
2013-03-25 17:29:00,48.7,26.1,29.20,South,180,2.5,2.7,41,0.00,,,0.00,VWS V14.01,2013-03-25 21:29:00,
2013-03-25 17:35:00,49.1,26.4,29.20,SE,135,2.5,2.5,41,0.00,,,0.00,VWS V14.01,2013-03-25 21:35:00,
2013-03-25 17:40:00,49.1,26.4,29.20,SSE,158,2.7,2.7,41,0.00,,,0.00,VWS V14.01,2013-03-25 21:40:00,
2013-03-25 17:45:00,48.7,26.1,29.20,SSW,202,2.7,4.3,41,0.00,,,0.00,VWS V14.01,2013-03-25 21:45:00,
2013-03-25 17:50:00,48.7,26.1,29.20,WSW,248,3.1,4.7,41,0.00,,,0.00,VWS V14.01,2013-03-25 21:50:00,
2013-03-25 17:55:00,48.7,26.1,29.20,SE,135,2.9,3.6,41,0.00,,,0.00,VWS V14.01,2013-03-25 21:55:00,
2013-03-25 18:00:00,48.4,25.8,29.20,South,180,2.9,2.9,41,0.00,,,0.00,VWS V14.01,2013-03-25 22:00:00,
2013-03-25 18:06:00,48.2,25.6,29.20,South,180,1.6,1.6,41,0.00,,,0.00,VWS V14.01,2013-03-25 22:06:00,
2013-03-25 18:11:00,48.0,25.5,29.20,SSE,158,10.3,10.3,41,0.00,,,0.00,VWS V14.01,2013-03-25 22:11:00,
2013-03-25 18:16:00,48.2,25.6,29.20,WNW,292,4.5,4.5,41,0.00,,,0.00,VWS V14.01,2013-03-25 22:16:00,
2013-03-25 18:21:00,48.2,25.6,29.20,WSW,248,3.4,3.4,41,0.00,,,0.00,VWS V14.01,2013-03-25 22:21:00,
2013-03-25 18:27:00,48.2,25.6,29.20,South,180,2.5,4.3,41,0.00,,,0.00,VWS V14.01,2013-03-25 22:27:00,
2013-03-25 18:32:00,48.2,25.6,29.20,SSW,202,3.8,6.5,41,0.00,,,0.00,VWS V14.01,2013-03-25 22:32:00,
2013-03-25 18:37:00,47.8,25.3,29.20,SW,225,2.2,2.2,41,0.00,,,0.00,VWS V14.01,2013-03-25 22:37:00,
2013-03-25 18:42:00,47.8,25.3,29.20,SSE,158,3.1,3.1,41,0.00,,,0.00,VWS V14.01,2013-03-25 22:42:00,
2013-03-25 18:47:00,47.7,25.1,29.20,SE,135,0.9,3.6,41,0.00,,,0.00,VWS V14.01,2013-03-25 22:47:00,
2013-03-25 18:53:00,47.7,25.1,29.20,SSE,158,5.4,5.4,41,0.00,,,0.00,VWS V14.01,2013-03-25 22:53:00,
2013-03-25 18:58:00,47.5,25.0,29.23,SE,135,3.8,3.8,41,0.00,,,0.00,VWS V14.01,2013-03-25 22:58:00,
2013-03-25 19:03:00,47.3,25.4,29.23,SSW,202,4.0,4.0,42,0.00,,,0.00,VWS V14.01,2013-03-25 23:03:00,
2013-03-25 19:08:00,47.3,24.8,29.23,SE,135,2.0,2.0,41,0.00,,,0.00,VWS V14.01,2013-03-25 23:08:00,
2013-03-25 19:13:00,47.1,24.6,29.23,SE,135,0.0,0.0,41,0.00,,,0.00,VWS V14.01,2013-03-25 23:13:00,
2013-03-25 19:18:00,46.9,24.5,29.23,SSW,202,2.0,5.8,41,0.00,,,0.00,VWS V14.01,2013-03-25 23:18:00,
2013-03-25 19:24:00,46.8,24.3,29.26,SE,135,1.3,1.3,41,0.00,,,0.00,VWS V14.01,2013-03-25 23:24:00,
2013-03-25 19:29:00,46.6,24.2,29.26,SW,225,3.6,3.6,41,0.00,,,0.00,VWS V14.01,2013-03-25 23:29:00,
2013-03-25 19:34:00,46.4,24.0,29.26,SSE,158,3.1,3.1,41,0.00,,,0.00,VWS V14.01,2013-03-25 23:34:00,
2013-03-25 19:39:00,46.4,24.0,29.26,West,270,4.3,4.3,41,0.00,,,0.00,VWS V14.01,2013-03-25 23:39:00,
2013-03-25 19:44:00,46.2,24.4,29.26,SW,225,2.0,2.0,42,0.00,,,0.00,VWS V14.01,2013-03-25 23:44:00,
2013-03-25 19:49:00,46.0,24.2,29.26,SSE,158,2.5,4.5,42,0.00,,,0.00,VWS V14.01,2013-03-25 23:49:00,
2013-03-25 19:54:00,45.9,24.1,29.26,West,270,2.5,2.5,42,0.00,,,0.00,VWS V14.01,2013-03-25 23:54:00,
2013-03-25 20:00:00,45.5,23.8,29.26,South,180,2.5,3.6,42,0.00,,,0.00,VWS V14.01,2013-03-26 00:00:00,
2013-03-25 20:05:00,45.5,23.8,29.26,WSW,248,2.5,5.4,42,0.00,,,0.00,VWS V14.01,2013-03-26 00:05:00,
2013-03-25 20:10:00,45.3,23.6,29.29,SSE,158,2.5,2.5,42,0.00,,,0.00,VWS V14.01,2013-03-26 00:10:00,
2013-03-25 20:15:00,45.1,24.0,29.29,SSE,158,2.9,2.9,43,0.00,,,0.00,VWS V14.01,2013-03-26 00:15:00,
2013-03-25 20:20:00,45.1,23.4,29.29,SSE,158,2.5,2.5,42,0.00,,,0.00,VWS V14.01,2013-03-26 00:20:00,
2013-03-25 20:25:00,45.0,23.3,29.29,SE,135,2.0,2.0,42,0.00,,,0.00,VWS V14.01,2013-03-26 00:25:00,
2013-03-25 20:30:00,44.6,23.5,29.29,SSE,158,2.7,2.7,43,0.00,,,0.00,VWS V14.01,2013-03-26 00:30:00,
2013-03-25 20:36:00,44.2,23.7,29.29,SSE,158,1.3,1.3,44,0.00,,,0.00,VWS V14.01,2013-03-26 00:36:00,
2013-03-25 20:41:00,44.2,23.2,29.29,SE,135,1.6,1.6,43,0.00,,,0.00,VWS V14.01,2013-03-26 00:41:00,
2013-03-25 20:46:00,43.7,23.2,29.29,SE,135,0.0,0.0,44,0.00,,,0.00,VWS V14.01,2013-03-26 00:46:00,
2013-03-25 20:52:00,43.5,23.6,29.29,ESE,112,0.0,0.0,45,0.00,,,0.00,VWS V14.01,2013-03-26 00:52:00,
2013-03-25 20:57:00,43.3,24.0,29.32,East,90,1.1,1.1,46,0.00,,,0.00,VWS V14.01,2013-03-26 00:57:00,
2013-03-25 21:02:00,43.2,24.3,29.32,SE,135,1.6,3.6,47,0.00,,,0.00,VWS V14.01,2013-03-26 01:02:00,
2013-03-25 21:07:00,43.2,23.8,29.32,SSE,158,1.1,1.1,46,0.00,,,0.00,VWS V14.01,2013-03-26 01:07:00,
2013-03-25 21:13:00,43.2,24.3,29.29,South,180,0.0,1.6,47,0.00,,,0.00,VWS V14.01,2013-03-26 01:13:00,
2013-03-25 21:18:00,43.2,24.3,29.29,South,180,0.0,0.0,47,0.00,,,0.00,VWS V14.01,2013-03-26 01:18:00,
2013-03-25 21:23:00,43.2,24.8,29.29,South,180,0.0,0.0,48,0.00,,,0.00,VWS V14.01,2013-03-26 01:23:00,
2013-03-25 21:28:00,43.2,24.3,29.32,SE,135,0.0,1.1,47,0.00,,,0.00,VWS V14.01,2013-03-26 01:28:00,
2013-03-25 21:33:00,43.2,23.8,29.32,SSE,158,2.2,2.9,46,0.00,,,0.00,VWS V14.01,2013-03-26 01:33:00,
2013-03-25 21:38:00,43.0,23.6,29.32,SSE,158,2.2,2.2,46,0.00,,,0.00,VWS V14.01,2013-03-26 01:38:00,
2013-03-25 21:43:00,42.8,23.5,29.32,SSE,158,3.4,3.4,46,0.00,,,0.00,VWS V14.01,2013-03-26 01:43:00,
2013-03-25 21:49:00,42.6,23.3,29.32,South,180,1.1,2.0,46,0.00,,,0.00,VWS V14.01,2013-03-26 01:49:00,
2013-03-25 21:54:00,42.4,23.6,29.32,SSE,158,0.9,1.3,47,0.00,,,0.00,VWS V14.01,2013-03-26 01:54:00,
2013-03-25 21:59:00,42.4,23.1,29.32,South,180,2.0,2.0,46,0.00,,,0.00,VWS V14.01,2013-03-26 01:59:00,
2013-03-25 22:04:00,42.3,23.0,29.32,South,180,3.1,3.1,46,0.00,,,0.00,VWS V14.01,2013-03-26 02:04:00,
2013-03-25 22:10:00,42.3,23.0,29.32,SSW,202,0.0,0.0,46,0.00,,,0.00,VWS V14.01,2013-03-26 02:10:00,
2013-03-25 22:15:00,42.3,23.5,29.32,SSE,158,2.2,2.2,47,0.00,,,0.00,VWS V14.01,2013-03-26 02:15:00,
2013-03-25 22:20:00,42.1,23.3,29.32,South,180,1.6,2.7,47,0.00,,,0.00,VWS V14.01,2013-03-26 02:20:00,
2013-03-25 22:25:00,41.9,23.2,29.35,SW,225,2.9,2.9,47,0.00,,,0.00,VWS V14.01,2013-03-26 02:25:00,
2013-03-25 22:30:00,41.9,22.6,29.35,SSW,202,1.3,3.1,46,0.00,,,0.00,VWS V14.01,2013-03-26 02:30:00,
2013-03-25 22:35:00,41.9,22.6,29.35,East,90,2.9,3.6,46,0.00,,,0.00,VWS V14.01,2013-03-26 02:35:00,
2013-03-25 22:40:00,41.7,22.5,29.35,South,180,2.9,2.9,46,0.00,,,0.00,VWS V14.01,2013-03-26 02:40:00,
2013-03-25 22:45:00,41.7,22.5,29.35,SE,135,1.3,1.3,46,0.00,,,0.00,VWS V14.01,2013-03-26 02:45:00,
2013-03-25 22:51:00,41.5,22.3,29.35,South,180,2.5,2.7,46,0.00,,,0.00,VWS V14.01,2013-03-26 02:51:00,
2013-03-25 22:56:00,41.5,22.3,29.35,NNW,338,3.1,3.1,46,0.00,,,0.00,VWS V14.01,2013-03-26 02:56:00,
2013-03-25 23:01:00,41.5,22.3,29.35,WSW,248,2.7,2.7,46,0.00,,,0.00,VWS V14.01,2013-03-26 03:01:00,
2013-03-25 23:07:00,41.4,22.1,29.35,South,180,2.9,3.8,46,0.00,,,0.00,VWS V14.01,2013-03-26 03:07:00,
2013-03-25 23:12:00,41.2,22.0,29.35,SSE,158,1.1,4.3,46,0.00,,,0.00,VWS V14.01,2013-03-26 03:12:00,
2013-03-25 23:17:00,41.2,22.0,29.35,South,180,1.6,1.6,46,0.00,,,0.00,VWS V14.01,2013-03-26 03:17:00,
2013-03-25 23:22:00,41.0,21.8,29.35,West,270,1.1,1.3,46,0.00,,,0.00,VWS V14.01,2013-03-26 03:22:00,
2013-03-25 23:27:00,40.8,22.2,29.35,SSE,158,1.3,1.3,47,0.00,,,0.00,VWS V14.01,2013-03-26 03:27:00,
2013-03-25 23:32:00,40.8,21.7,29.35,SSE,158,0.0,1.6,46,0.00,,,0.00,VWS V14.01,2013-03-26 03:32:00,
2013-03-25 23:38:00,40.6,22.0,29.35,SSE,158,2.9,2.9,47,0.00,,,0.00,VWS V14.01,2013-03-26 03:38:00,
2013-03-25 23:43:00,40.5,21.8,29.35,SE,135,0.0,2.2,47,0.00,,,0.00,VWS V14.01,2013-03-26 03:43:00,
2013-03-25 23:48:00,40.3,21.7,29.35,South,180,1.6,1.6,47,0.00,,,0.00,VWS V14.01,2013-03-26 03:48:00,
2013-03-25 23:53:00,40.3,21.7,29.35,SE,135,2.9,2.9,47,0.00,,,0.00,VWS V14.01,2013-03-26 03:53:00,
2013-03-25 23:58:00,39.9,21.3,29.35,SSW,202,2.5,2.5,47,0.00,,,0.00,VWS V14.01,2013-03-26 03:58:00,